Time;durP1;ratioP1;P1;durP2;ratioP2;P2;SDS_P1;SDS_P2;PMS_P1;PMS_P2;Temp;Humidity;BMP_temperature;BMP_pressure;BME280_temperature;BME280_humidity;BME280_pressure;Samples;Min_cycle;Max_cycle;Signal;HPM_P1;HPM_P2
2022/06/05 00:02:23;;;;;;;30.48;28.27;;;;;;;;;;5078874;28;24414;-45
2022/06/05 00:04:53;;;;;;;33.38;30.98;;;;;;;;;;5078837;28;25070;-45
2022/06/05 00:07:31;;;;;;;31.63;29.33;;;;;;;;;;5079656;28;24437;-45
2022/06/05 00:10:07;;;;;;;32.33;30.03;;;;;;;;;;5084539;28;24479;-45
2022/06/05 00:12:36;;;;;;;31.58;29.27;;;;;;;;;;5076977;28;24436;-46
2022/06/05 00:15:01;;;;;;;31.92;29.63;;;;;;;;;;5080767;28;24434;-45
2022/06/05 00:17:26;;;;;;;31.30;29.00;;;;;;;;;;5086849;28;24479;-45
2022/06/05 00:19:52;;;;;;;31.83;29.60;;;;;;;;;;5086371;28;24511;-45
2022/06/05 00:22:18;;;;;;;31.20;28.90;;;;;;;;;;5085900;28;24433;-45
2022/06/05 00:24:43;;;;;;;32.28;29.88;;;;;;;;;;5086728;28;24471;-45
2022/06/05 00:27:12;;;;;;;31.13;28.93;;;;;;;;;;5087449;28;24476;-45
2022/06/05 00:29:44;;;;;;;32.80;30.30;;;;;;;;;;5084989;28;25140;-46
2022/06/05 00:32:09;;;;;;;32.17;29.77;;;;;;;;;;5088486;28;24457;-46
2022/06/05 00:34:34;;;;;;;32.38;29.98;;;;;;;;;;5086041;28;24446;-46
2022/06/05 00:37:11;;;;;;;32.40;30.00;;;;;;;;;;5069540;28;24461;-46
2022/06/05 00:39:45;;;;;;;31.20;28.90;;;;;;;;;;5085624;28;24454;-46
2022/06/05 00:42:12;;;;;;;30.97;28.70;;;;;;;;;;5087129;28;24426;-46
2022/06/05 00:44:39;;;;;;;32.78;30.38;;;;;;;;;;5090252;28;24454;-46
2022/06/05 00:47:06;;;;;;;29.83;27.52;;;;;;;;;;5096317;28;24422;-46
2022/06/05 00:49:37;;;;;;;30.30;28.10;;;;;;;;;;5077686;28;24423;-46
2022/06/05 00:52:03;;;;;;;30.92;28.52;;;;;;;;;;5094257;28;24794;-46
2022/06/05 00:54:28;;;;;;;31.10;28.80;;;;;;;;;;5094561;28;25013;-46
2022/06/05 00:56:55;;;;;;;30.05;27.85;;;;;;;;;;5098958;28;24452;-46
2022/06/05 00:59:20;;;;;;;29.37;27.27;;;;;;;;;;5095901;28;24418;-46
2022/06/05 01:01:46;;;;;;;30.15;27.95;;;;;;;;;;5080095;28;24422;-46
2022/06/05 01:04:12;;;;;;;30.27;28.05;;;;;;;;;;5079312;28;24446;-46
2022/06/05 01:06:37;;;;;;;31.00;28.60;;;;;;;;;;5099220;28;24464;-46
2022/06/05 01:09:04;;;;;;;31.90;29.60;;;;;;;;;;5098809;28;24422;-46
2022/06/05 01:11:37;;;;;;;32.10;29.70;;;;;;;;;;5086714;28;24445;-46
2022/06/05 01:14:13;;;;;;;33.00;30.60;;;;;;;;;;5105281;28;24424;-45
2022/06/05 01:16:57;;;;;;;31.70;29.30;;;;;;;;;;5081881;28;25013;-46
2022/06/05 01:19:32;;;;;;;31.35;29.05;;;;;;;;;;5078982;28;24461;-46
2022/06/05 01:22:09;;;;;;;32.38;29.88;;;;;;;;;;5093566;28;25054;-46
2022/06/05 01:24:43;;;;;;;31.05;28.75;;;;;;;;;;5089419;28;24449;-46
2022/06/05 01:27:12;;;;;;;31.30;29.00;;;;;;;;;;5102541;28;24425;-46
2022/06/05 01:29:40;;;;;;;29.20;27.00;;;;;;;;;;5075723;28;24835;-46
2022/06/05 01:32:09;;;;;;;30.92;28.63;;;;;;;;;;5077569;28;24483;-45
2022/06/05 01:34:34;;;;;;;30.15;27.95;;;;;;;;;;5099189;28;24523;-46
2022/06/05 01:36:59;;;;;;;31.30;28.90;;;;;;;;;;5079492;28;24445;-46
2022/06/05 01:39:29;;;;;;;30.45;28.17;;;;;;;;;;5086142;28;24503;-46
2022/06/05 01:41:57;;;;;;;31.55;29.10;;;;;;;;;;5086100;28;24414;-46
2022/06/05 01:44:33;;;;;;;29.45;27.25;;;;;;;;;;5079499;28;24856;-46
2022/06/05 01:47:03;;;;;;;29.15;27.05;;;;;;;;;;5075638;28;24431;-45
2022/06/05 01:49:45;;;;;;;30.33;28.08;;;;;;;;;;5060857;28;24427;-45
2022/06/05 01:52:20;;;;;;;28.90;26.80;;;;;;;;;;5065117;28;24467;-45
2022/06/05 01:54:49;;;;;;;30.27;27.97;;;;;;;;;;5075813;28;25189;-45
2022/06/05 01:57:16;;;;;;;28.95;26.85;;;;;;;;;;5078552;28;24425;-46
2022/06/05 01:59:43;;;;;;;28.13;26.13;;;;;;;;;;5075183;28;24426;-46
2022/06/05 02:02:11;;;;;;;30.05;27.80;;;;;;;;;;5068263;28;24426;-46
2022/06/05 02:04:52;;;;;;;28.75;26.65;;;;;;;;;;5060471;28;24430;-46
2022/06/05 02:07:18;;;;;;;28.00;26.05;;;;;;;;;;5063553;28;24411;-45
2022/06/05 02:09:55;;;;;;;29.05;26.95;;;;;;;;;;5073328;28;25097;-45
2022/06/05 02:12:20;;;;;;;28.35;26.35;;;;;;;;;;5054323;28;24767;-45
2022/06/05 02:14:46;;;;;;;30.03;27.90;;;;;;;;;;5058897;28;24517;-46
2022/06/05 02:17:11;;;;;;;27.90;25.80;;;;;;;;;;5073566;28;24859;-45
2022/06/05 02:19:37;;;;;;;29.53;27.43;;;;;;;;;;5070661;28;24952;-45
2022/06/05 02:22:06;;;;;;;29.50;27.40;;;;;;;;;;5067777;28;24497;-45
2022/06/05 02:24:31;;;;;;;29.60;27.40;;;;;;;;;;5066487;28;24435;-46
2022/06/05 02:26:58;;;;;;;29.20;27.00;;;;;;;;;;5072768;28;24433;-46
2022/06/05 02:29:24;;;;;;;28.48;26.38;;;;;;;;;;5064159;28;25085;-45
2022/06/05 02:32:08;;;;;;;28.50;26.45;;;;;;;;;;5070569;28;24438;-46
2022/06/05 02:34:36;;;;;;;28.70;26.60;;;;;;;;;;5065675;28;24516;-46
2022/06/05 02:37:04;;;;;;;28.67;26.67;;;;;;;;;;5064965;28;24503;-46
2022/06/05 02:39:35;;;;;;;28.33;26.23;;;;;;;;;;5077639;28;24994;-45
2022/06/05 02:42:15;;;;;;;28.75;26.65;;;;;;;;;;5078407;28;24499;-46
2022/06/05 02:44:44;;;;;;;28.77;26.67;;;;;;;;;;5074732;28;24442;-44
2022/06/05 02:47:26;;;;;;;28.50;26.50;;;;;;;;;;5082572;28;24434;-45
2022/06/05 02:50:03;;;;;;;28.00;26.00;;;;;;;;;;5082070;28;24430;-45
2022/06/05 02:52:30;;;;;;;28.73;26.73;;;;;;;;;;5083852;28;24436;-45
2022/06/05 02:55:04;;;;;;;27.42;25.38;;;;;;;;;;5088339;28;25031;-45
2022/06/05 02:57:29;;;;;;;28.80;26.60;;;;;;;;;;5082111;28;24516;-46
2022/06/05 02:59:54;;;;;;;27.13;25.13;;;;;;;;;;5085421;28;24456;-45
2022/06/05 03:05:04;;;;;;;26.80;24.90;;;;;;;;;;5082244;28;24443;-45
2022/06/05 03:07:29;;;;;;;26.50;24.60;;;;;;;;;;5087596;28;24882;-46
2022/06/05 03:09:54;;;;;;;26.38;24.48;;;;;;;;;;5085251;28;24806;-45
2022/06/05 03:12:19;;;;;;;26.30;24.40;;;;;;;;;;5084221;28;24414;-46
2022/06/05 03:14:44;;;;;;;27.77;25.77;;;;;;;;;;5084126;28;24507;-45
2022/06/05 03:17:09;;;;;;;26.98;24.98;;;;;;;;;;5082239;28;24769;-46
2022/06/05 03:19:34;;;;;;;25.75;23.95;;;;;;;;;;5084913;28;24475;-45
2022/06/05 03:22:00;;;;;;;24.63;22.92;;;;;;;;;;5082548;28;24460;-46
2022/06/05 03:24:25;;;;;;;25.20;23.40;;;;;;;;;;5083361;28;24422;-45
2022/06/05 03:26:50;;;;;;;25.00;23.20;;;;;;;;;;5084044;28;24442;-45
2022/06/05 03:29:15;;;;;;;26.20;24.40;;;;;;;;;;5085601;28;24979;-45
2022/06/05 03:31:40;;;;;;;27.33;25.33;;;;;;;;;;5082125;28;24430;-45
2022/06/05 03:34:05;;;;;;;24.40;22.70;;;;;;;;;;5083866;28;25174;-45
2022/06/05 03:36:31;;;;;;;22.70;21.10;;;;;;;;;;5084841;28;24429;-45
2022/06/05 03:38:56;;;;;;;24.00;22.30;;;;;;;;;;5083598;28;24425;-46
2022/06/05 03:41:21;;;;;;;24.03;22.33;;;;;;;;;;5084408;28;24512;-45
2022/06/05 03:43:47;;;;;;;22.77;21.17;;;;;;;;;;5088623;28;24531;-45
2022/06/05 03:46:13;;;;;;;24.23;22.52;;;;;;;;;;5096244;28;24491;-46
2022/06/05 03:48:38;;;;;;;25.45;23.63;;;;;;;;;;5101802;28;24428;-45
2022/06/05 03:51:05;;;;;;;24.13;22.43;;;;;;;;;;5096079;28;24567;-46
2022/06/05 03:53:30;;;;;;;24.80;23.00;;;;;;;;;;5092063;28;24978;-46
2022/06/05 03:55:55;;;;;;;24.10;22.10;;;;;;;;;;5102537;28;24496;-46
2022/06/05 03:58:20;;;;;;;23.47;21.47;;;;;;;;;;5102653;28;24772;-45
2022/06/05 04:00:45;;;;;;;23.27;21.27;;;;;;;;;;5097584;28;24455;-46
2022/06/05 04:03:10;;;;;;;23.50;21.60;;;;;;;;;;5089498;28;24972;-45
2022/06/05 04:05:35;;;;;;;24.40;22.30;;;;;;;;;;5097229;28;25051;-45
2022/06/05 04:08:01;;;;;;;23.23;21.17;;;;;;;;;;5077950;28;24429;-46
2022/06/05 04:10:26;;;;;;;24.23;22.13;;;;;;;;;;5100250;28;24430;-45
2022/06/05 04:12:52;;;;;;;24.20;22.10;;;;;;;;;;5092758;28;24863;-45
2022/06/05 04:15:17;;;;;;;23.90;21.90;;;;;;;;;;5088849;28;24417;-46
2022/06/05 04:17:42;;;;;;;23.90;21.90;;;;;;;;;;5102505;28;24422;-44
2022/06/05 04:20:08;;;;;;;26.27;23.92;;;;;;;;;;5102950;28;24426;-46
2022/06/05 04:22:36;;;;;;;23.65;21.65;;;;;;;;;;5094707;28;24449;-45
2022/06/05 04:25:06;;;;;;;23.10;21.10;;;;;;;;;;5098993;28;24503;-46
2022/06/05 04:27:31;;;;;;;22.60;20.70;;;;;;;;;;5079896;28;25304;-46
2022/06/05 04:30:00;;;;;;;22.70;20.80;;;;;;;;;;5091931;28;24528;-45
2022/06/05 04:32:25;;;;;;;21.20;19.50;;;;;;;;;;5097176;28;24467;-46
2022/06/05 04:34:50;;;;;;;19.60;17.90;;;;;;;;;;5086796;28;24507;-46
2022/06/05 04:37:16;;;;;;;19.90;18.30;;;;;;;;;;5101218;28;24487;-46
2022/06/05 04:39:41;;;;;;;20.95;19.23;;;;;;;;;;5100034;28;24496;-46
2022/06/05 04:42:06;;;;;;;21.73;19.92;;;;;;;;;;5106937;28;24470;-46
2022/06/05 04:44:31;;;;;;;20.20;18.50;;;;;;;;;;5089625;28;25044;-45
2022/06/05 04:46:56;;;;;;;21.23;19.42;;;;;;;;;;5081856;28;24432;-45
2022/06/05 04:49:21;;;;;;;23.08;21.08;;;;;;;;;;5086888;28;24422;-46
2022/06/05 04:51:46;;;;;;;22.83;20.83;;;;;;;;;;5069361;28;25041;-46
2022/06/05 04:54:13;;;;;;;22.80;20.90;;;;;;;;;;5081526;28;24533;-46
2022/06/05 04:56:38;;;;;;;22.67;20.77;;;;;;;;;;5067800;28;24481;-47
2022/06/05 04:59:04;;;;;;;22.60;20.70;;;;;;;;;;5067197;28;24619;-46
2022/06/05 05:01:30;;;;;;;22.73;20.73;;;;;;;;;;5061167;28;24509;-46
2022/06/05 05:03:59;;;;;;;22.35;20.45;;;;;;;;;;5074085;28;24953;-46
2022/06/05 05:06:25;;;;;;;20.63;18.92;;;;;;;;;;5087063;28;24410;-46
2022/06/05 05:08:50;;;;;;;21.17;19.40;;;;;;;;;;5072467;28;24407;-46
2022/06/05 05:11:16;;;;;;;21.83;20.03;;;;;;;;;;5085462;28;24514;-46
2022/06/05 05:13:41;;;;;;;21.70;19.90;;;;;;;;;;5064497;28;24428;-46
2022/06/05 05:16:07;;;;;;;21.60;19.80;;;;;;;;;;5063603;28;24428;-45
2022/06/05 05:18:32;;;;;;;22.20;20.30;;;;;;;;;;5064102;28;24422;-45
2022/06/05 05:21:05;;;;;;;22.40;20.50;;;;;;;;;;5072856;28;24442;-45
2022/06/05 05:23:30;;;;;;;21.05;19.35;;;;;;;;;;5069039;28;24418;-46
2022/06/05 05:26:04;;;;;;;22.15;20.35;;;;;;;;;;5063141;28;24747;-46
2022/06/05 05:28:29;;;;;;;24.15;22.15;;;;;;;;;;5072328;28;24862;-46
2022/06/05 05:30:54;;;;;;;23.47;21.57;;;;;;;;;;5070866;28;24457;-46
2022/06/05 05:33:19;;;;;;;20.27;18.58;;;;;;;;;;5064555;28;24414;-46
2022/06/05 05:35:44;;;;;;;20.57;18.97;;;;;;;;;;5053184;28;24594;-46
2022/06/05 05:38:10;;;;;;;20.38;18.77;;;;;;;;;;5060121;28;24411;-46
2022/06/05 05:43:19;;;;;;;19.90;18.30;;;;;;;;;;5076169;28;24583;-46
2022/06/05 05:45:45;;;;;;;21.90;20.20;;;;;;;;;;5064780;28;24525;-46
2022/06/05 05:48:10;;;;;;;19.20;17.60;;;;;;;;;;5072331;28;24426;-46
2022/06/05 05:50:35;;;;;;;18.80;17.40;;;;;;;;;;5066971;28;24426;-46
2022/06/05 05:53:00;;;;;;;18.20;16.80;;;;;;;;;;5062161;28;24422;-47
2022/06/05 05:55:26;;;;;;;17.53;16.23;;;;;;;;;;5069496;28;25026;-46
2022/06/05 05:57:51;;;;;;;17.20;15.80;;;;;;;;;;5076146;28;24417;-46
2022/06/05 06:00:17;;;;;;;17.40;16.10;;;;;;;;;;5065551;28;24596;-47
2022/06/05 06:02:43;;;;;;;17.35;16.15;;;;;;;;;;5061915;28;25025;-46
2022/06/05 06:05:09;;;;;;;17.30;16.10;;;;;;;;;;5080640;28;24407;-47
2022/06/05 06:07:34;;;;;;;16.80;15.60;;;;;;;;;;5077108;28;25090;-46
2022/06/05 06:10:00;;;;;;;17.30;16.10;;;;;;;;;;5062099;28;24435;-47
2022/06/05 06:12:25;;;;;;;16.70;15.60;;;;;;;;;;5060235;28;24425;-47
2022/06/05 06:14:50;;;;;;;19.17;17.87;;;;;;;;;;5062518;28;24430;-47
2022/06/05 06:17:16;;;;;;;17.98;16.67;;;;;;;;;;5052884;28;24514;-47
2022/06/05 06:19:41;;;;;;;16.67;15.50;;;;;;;;;;5058729;28;24451;-47
2022/06/05 06:22:06;;;;;;;17.50;16.20;;;;;;;;;;5058044;28;25078;-47
2022/06/05 06:24:31;;;;;;;19.57;18.17;;;;;;;;;;5051105;28;24777;-47
2022/06/05 06:26:56;;;;;;;17.07;15.87;;;;;;;;;;5052405;28;25007;-46
2022/06/05 06:29:22;;;;;;;21.05;19.45;;;;;;;;;;5059106;28;24969;-47
2022/06/05 06:31:47;;;;;;;21.15;19.65;;;;;;;;;;5049339;28;24429;-46
2022/06/05 06:34:12;;;;;;;21.17;19.57;;;;;;;;;;5052682;28;24521;-47
2022/06/05 06:36:37;;;;;;;22.43;20.73;;;;;;;;;;5040578;28;24465;-46
2022/06/05 06:39:03;;;;;;;23.33;21.63;;;;;;;;;;5052163;28;24450;-46
2022/06/05 06:41:28;;;;;;;20.70;19.10;;;;;;;;;;5062228;28;24480;-47
2022/06/05 06:43:53;;;;;;;18.95;17.55;;;;;;;;;;5076359;28;24443;-46
2022/06/05 06:46:19;;;;;;;17.67;16.37;;;;;;;;;;5073054;28;24414;-47
2022/06/05 06:48:44;;;;;;;19.88;18.38;;;;;;;;;;5087942;28;24516;-47
2022/06/05 06:51:10;;;;;;;22.07;20.37;;;;;;;;;;5071708;28;24431;-47
2022/06/05 06:53:36;;;;;;;22.63;20.92;;;;;;;;;;5087854;28;24453;-47
2022/06/05 06:56:12;;;;;;;18.80;17.40;;;;;;;;;;5078892;28;24547;-46
2022/06/05 06:58:38;;;;;;;21.38;19.77;;;;;;;;;;5082838;28;25205;-46
2022/06/05 07:01:03;;;;;;;20.73;19.13;;;;;;;;;;5082157;28;24483;-45
2022/06/05 07:03:29;;;;;;;20.63;19.03;;;;;;;;;;5089852;28;24422;-45
2022/06/05 07:05:54;;;;;;;20.35;18.85;;;;;;;;;;5083761;28;24422;-45
2022/06/05 07:08:19;;;;;;;20.25;18.75;;;;;;;;;;5075250;28;24933;-45
2022/06/05 07:10:44;;;;;;;17.90;16.60;;;;;;;;;;5077508;28;24470;-45
2022/06/05 07:13:09;;;;;;;19.52;18.02;;;;;;;;;;5071789;28;24846;-46
2022/06/05 07:15:35;;;;;;;18.48;17.17;;;;;;;;;;5069642;28;24829;-46
2022/06/05 07:18:01;;;;;;;17.93;16.63;;;;;;;;;;5074421;28;24433;-45
2022/06/05 07:20:26;;;;;;;17.45;16.25;;;;;;;;;;5080414;28;24426;-45
2022/06/05 07:22:51;;;;;;;17.20;16.00;;;;;;;;;;5090428;28;24483;-44
2022/06/05 07:25:16;;;;;;;15.40;14.20;;;;;;;;;;5084769;28;24971;-45
2022/06/05 07:27:42;;;;;;;16.73;15.43;;;;;;;;;;5075364;28;25056;-45
2022/06/05 07:30:07;;;;;;;14.90;13.80;;;;;;;;;;5066282;28;24512;-45
2022/06/05 07:32:33;;;;;;;15.40;14.23;;;;;;;;;;5078016;28;24461;-45
2022/06/05 07:34:58;;;;;;;14.03;13.13;;;;;;;;;;5090556;28;25039;-45
2022/06/05 07:37:23;;;;;;;14.40;13.30;;;;;;;;;;5076703;28;24425;-45
2022/06/05 07:39:48;;;;;;;13.98;12.98;;;;;;;;;;5089800;28;24502;-45
2022/06/05 07:42:14;;;;;;;14.00;13.00;;;;;;;;;;5069732;28;24778;-45
2022/06/05 07:44:39;;;;;;;13.50;12.60;;;;;;;;;;5052185;28;24630;-45
2022/06/05 07:47:05;;;;;;;13.13;12.23;;;;;;;;;;5070215;28;24422;-45
2022/06/05 07:49:30;;;;;;;12.18;11.38;;;;;;;;;;5069306;28;24421;-45
2022/06/05 07:54:39;;;;;;;11.60;10.80;;;;;;;;;;5069268;28;24472;-45
2022/06/05 07:57:07;;;;;;;10.40;9.70;;;;;;;;;;5068898;28;24504;-45
2022/06/05 07:59:34;;;;;;;9.70;8.90;;;;;;;;;;5069426;28;24436;-45
2022/06/05 08:02:00;;;;;;;10.57;9.77;;;;;;;;;;5068684;28;24407;-45
2022/06/05 08:04:26;;;;;;;9.25;8.65;;;;;;;;;;5078242;28;24827;-45
2022/06/05 08:06:52;;;;;;;10.23;9.23;;;;;;;;;;5087012;28;24554;-45
2022/06/05 08:09:17;;;;;;;9.95;9.25;;;;;;;;;;5078052;28;24419;-45
2022/06/05 08:11:45;;;;;;;10.10;9.30;;;;;;;;;;5068998;28;24437;-44
2022/06/05 08:14:10;;;;;;;9.30;8.60;;;;;;;;;;5068587;28;24968;-44
2022/06/05 08:16:35;;;;;;;9.43;8.77;;;;;;;;;;5068799;28;24433;-44
2022/06/05 08:19:00;;;;;;;8.87;8.27;;;;;;;;;;5069268;28;24445;-45
2022/06/05 08:21:26;;;;;;;9.70;9.10;;;;;;;;;;5068351;28;24434;-44
2022/06/05 08:23:51;;;;;;;8.50;8.00;;;;;;;;;;5068046;28;24514;-46
2022/06/05 08:26:17;;;;;;;8.95;8.35;;;;;;;;;;5075298;28;25031;-45
2022/06/05 08:28:42;;;;;;;9.50;8.70;;;;;;;;;;5068733;28;24522;-45
2022/06/05 08:31:07;;;;;;;10.25;9.45;;;;;;;;;;5067214;28;24415;-45
2022/06/05 08:33:33;;;;;;;8.83;8.30;;;;;;;;;;5088205;28;24744;-45
2022/06/05 08:35:58;;;;;;;8.35;7.85;;;;;;;;;;5076160;28;24952;-46
2022/06/05 08:41:32;;;;;;;8.50;8.00;;;;;;;;;;5069330;28;24852;-45
2022/06/05 08:44:13;;;;;;;9.50;8.90;;;;;;;;;;5043100;28;24514;-45
2022/06/05 08:46:41;;;;;;;9.47;8.77;;;;;;;;;;5065055;28;24429;-45
2022/06/05 08:49:09;;;;;;;9.00;8.40;;;;;;;;;;5068108;28;24427;-45
2022/06/05 08:52:01;;;;;;;9.73;9.07;;;;;;;;;;5080845;28;24478;-46
2022/06/05 08:54:33;;;;;;;9.65;9.05;;;;;;;;;;5053729;28;24991;-46
2022/06/05 08:57:00;;;;;;;9.38;8.68;;;;;;;;;;5068849;28;24413;-46
2022/06/05 08:59:31;;;;;;;10.30;9.60;;;;;;;;;;5066314;28;24442;-45
2022/06/05 09:01:58;;;;;;;9.48;8.80;;;;;;;;;;5068445;28;24430;-45
2022/06/05 09:04:35;;;;;;;9.30;8.70;;;;;;;;;;5067758;28;24520;-46
2022/06/05 09:07:03;;;;;;;9.45;8.85;;;;;;;;;;5067410;28;24511;-46
2022/06/05 09:09:34;;;;;;;8.50;7.95;;;;;;;;;;5066988;28;24433;-45
2022/06/05 09:12:06;;;;;;;9.20;8.60;;;;;;;;;;5080116;28;24515;-46
2022/06/05 09:14:36;;;;;;;9.50;8.90;;;;;;;;;;5086591;28;25275;-47
2022/06/05 09:17:30;;;;;;;9.00;8.30;;;;;;;;;;5084711;28;24975;-46
2022/06/05 09:19:57;;;;;;;9.25;8.55;;;;;;;;;;5042057;28;24442;-47
2022/06/05 09:22:46;;;;;;;9.13;8.35;;;;;;;;;;5067623;28;24624;-46
2022/06/05 09:25:20;;;;;;;9.10;8.50;;;;;;;;;;5080513;28;24434;-46
2022/06/05 09:27:51;;;;;;;8.98;8.40;;;;;;;;;;5080029;28;24419;-46
2022/06/05 09:30:22;;;;;;;9.03;8.43;;;;;;;;;;5067153;28;24648;-46
2022/06/05 09:33:05;;;;;;;9.23;8.73;;;;;;;;;;5068182;28;24821;-46
2022/06/05 09:35:36;;;;;;;9.23;8.63;;;;;;;;;;5070735;28;24892;-47
2022/06/05 09:38:24;;;;;;;9.27;8.57;;;;;;;;;;5067824;28;24512;-46
2022/06/05 09:40:56;;;;;;;9.55;8.95;;;;;;;;;;5026903;28;24434;-46
2022/06/05 09:43:39;;;;;;;8.55;7.95;;;;;;;;;;5055902;28;25178;-46
2022/06/05 09:46:16;;;;;;;8.32;7.80;;;;;;;;;;5061141;28;24430;-47
2022/06/05 09:48:45;;;;;;;8.68;8.07;;;;;;;;;;5059571;28;24531;-47
2022/06/05 09:51:12;;;;;;;9.00;8.40;;;;;;;;;;5064425;28;24786;-46
2022/06/05 09:53:56;;;;;;;8.57;8.02;;;;;;;;;;5059466;28;24510;-46
2022/06/05 09:58:24;;;;;;;7.82;7.32;;;;;;;;;;5047391;28;24977;-46
2022/06/05 09:59:29;;;;;;;8.60;8.00;;;;;;;;;;5063616;28;24399;-46
2022/06/05 10:01:55;;;;;;;7.80;7.30;;;;;;;;;;5052988;28;24468;-46
2022/06/05 10:04:21;;;;;;;8.60;8.10;;;;;;;;;;5046869;28;24537;-46
2022/06/05 10:06:52;;;;;;;8.00;7.50;;;;;;;;;;5061826;28;24425;-46
2022/06/05 10:09:23;;;;;;;8.30;7.72;;;;;;;;;;5054258;28;24566;-46
2022/06/05 10:11:54;;;;;;;7.90;7.30;;;;;;;;;;5061519;28;24443;-46
2022/06/05 10:14:37;;;;;;;9.07;8.38;;;;;;;;;;5081105;28;24434;-46
2022/06/05 10:17:18;;;;;;;8.80;8.20;;;;;;;;;;5067228;28;24465;-47
2022/06/05 10:19:52;;;;;;;8.23;7.72;;;;;;;;;;5060218;28;24487;-45
2022/06/05 10:22:26;;;;;;;8.23;7.72;;;;;;;;;;5052993;28;24420;-47
2022/06/05 10:24:57;;;;;;;8.40;7.80;;;;;;;;;;5064297;28;24427;-46
2022/06/05 10:27:22;;;;;;;8.48;7.97;;;;;;;;;;5055224;28;24977;-46
2022/06/05 10:29:54;;;;;;;7.80;7.20;;;;;;;;;;5051392;28;24469;-46
2022/06/05 10:32:32;;;;;;;7.78;7.28;;;;;;;;;;5061038;28;24462;-46
2022/06/05 10:35:18;;;;;;;8.70;8.10;;;;;;;;;;5072394;28;24445;-46
2022/06/05 10:37:47;;;;;;;8.10;7.60;;;;;;;;;;5066019;28;25086;-46
2022/06/05 10:40:17;;;;;;;9.43;8.73;;;;;;;;;;5065951;28;24517;-46
2022/06/05 10:42:52;;;;;;;7.97;7.47;;;;;;;;;;5078787;28;24382;-46
2022/06/05 10:45:22;;;;;;;7.93;7.43;;;;;;;;;;5069802;28;24983;-46
2022/06/05 10:47:56;;;;;;;8.50;7.90;;;;;;;;;;5066114;28;24480;-48
2022/06/05 10:50:24;;;;;;;8.57;8.07;;;;;;;;;;5064603;28;25180;-45
2022/06/05 10:53:07;;;;;;;7.65;7.15;;;;;;;;;;5058604;28;24522;-45
2022/06/05 10:56:01;;;;;;;7.60;7.10;;;;;;;;;;5069225;28;24461;-46
2022/06/05 10:58:45;;;;;;;8.10;7.60;;;;;;;;;;5068845;28;24423;-49
2022/06/05 11:01:25;;;;;;;7.20;6.70;;;;;;;;;;5085885;28;24422;-45
2022/06/05 11:03:59;;;;;;;8.23;7.63;;;;;;;;;;5086836;28;24394;-45
2022/06/05 11:06:25;;;;;;;7.20;6.80;;;;;;;;;;5080590;28;24524;-45
2022/06/05 11:09:09;;;;;;;7.68;7.28;;;;;;;;;;5085762;28;24659;-44
2022/06/05 11:14:46;;;;;;;7.35;6.88;;;;;;;;;;5085754;28;24378;-45
2022/06/05 11:17:30;;;;;;;8.20;7.60;;;;;;;;;;5079061;28;24816;-46
2022/06/05 11:20:15;;;;;;;8.02;7.53;;;;;;;;;;5083022;28;24779;-46
2022/06/05 11:22:45;;;;;;;7.50;7.00;;;;;;;;;;5085641;28;24517;-46
2022/06/05 11:25:20;;;;;;;7.20;6.80;;;;;;;;;;5069394;28;24516;-45
2022/06/05 11:27:51;;;;;;;7.63;7.13;;;;;;;;;;5058192;28;24423;-46
2022/06/05 11:30:31;;;;;;;6.60;6.20;;;;;;;;;;5064638;28;24816;-45
2022/06/05 11:33:01;;;;;;;7.80;7.30;;;;;;;;;;5069575;28;24465;-44
2022/06/05 11:35:57;;;;;;;6.90;6.40;;;;;;;;;;5079586;28;24406;-45
2022/06/05 11:38:29;;;;;;;7.50;7.10;;;;;;;;;;5081413;28;24857;-45
2022/06/05 11:41:03;;;;;;;7.50;7.00;;;;;;;;;;5085366;28;24449;-45
2022/06/05 11:43:35;;;;;;;6.90;6.50;;;;;;;;;;5082881;28;24765;-46
2022/06/05 11:46:15;;;;;;;8.10;7.60;;;;;;;;;;5085472;28;24437;-45
2022/06/05 11:48:40;;;;;;;8.32;7.72;;;;;;;;;;5069355;28;24504;-45
2022/06/05 11:51:21;;;;;;;7.60;7.20;;;;;;;;;;5067265;28;24995;-45
2022/06/05 11:53:51;;;;;;;7.47;7.00;;;;;;;;;;5066168;28;24391;-45
2022/06/05 11:56:16;;;;;;;7.40;6.80;;;;;;;;;;5064654;28;24415;-45
2022/06/05 11:58:46;;;;;;;7.90;7.40;;;;;;;;;;5049779;28;24510;-45
2022/06/05 12:01:15;;;;;;;7.50;6.90;;;;;;;;;;5065351;28;24606;-46
2022/06/05 12:03:53;;;;;;;7.55;7.05;;;;;;;;;;5066057;28;24456;-45
2022/06/05 12:06:32;;;;;;;7.18;6.70;;;;;;;;;;5064242;28;24801;-45
2022/06/05 12:08:59;;;;;;;7.28;6.78;;;;;;;;;;5062660;28;24527;-45
2022/06/05 12:11:24;;;;;;;7.40;7.00;;;;;;;;;;5064264;28;25064;-45
2022/06/05 12:13:54;;;;;;;7.30;6.80;;;;;;;;;;5064349;28;24525;-45
2022/06/05 12:16:26;;;;;;;6.90;6.40;;;;;;;;;;5054603;28;24513;-45
2022/06/05 12:18:56;;;;;;;6.80;6.40;;;;;;;;;;5051961;28;24428;-46
2022/06/05 12:21:25;;;;;;;6.80;6.30;;;;;;;;;;5059067;28;25146;-46
2022/06/05 12:23:55;;;;;;;6.80;6.40;;;;;;;;;;5064398;28;24506;-46
2022/06/05 12:26:26;;;;;;;7.00;6.50;;;;;;;;;;5062729;28;24889;-45
2022/06/05 12:28:53;;;;;;;6.93;6.53;;;;;;;;;;5062924;28;24417;-46
2022/06/05 12:31:18;;;;;;;6.38;5.97;;;;;;;;;;5053729;28;24438;-45
2022/06/05 12:33:48;;;;;;;6.03;5.63;;;;;;;;;;5056072;28;25045;-46
2022/06/05 12:36:17;;;;;;;6.20;5.90;;;;;;;;;;5057465;28;24420;-46
2022/06/05 12:38:58;;;;;;;6.60;6.20;;;;;;;;;;5055010;28;25041;-46
2022/06/05 12:41:25;;;;;;;6.22;5.82;;;;;;;;;;5066190;28;24863;-45
2022/06/05 12:43:53;;;;;;;6.72;6.32;;;;;;;;;;5066593;28;24446;-45
2022/06/05 12:46:37;;;;;;;6.45;6.05;;;;;;;;;;5083575;28;24418;-46
2022/06/05 12:49:23;;;;;;;5.90;5.50;;;;;;;;;;5082886;28;24500;-47
2022/06/05 12:51:51;;;;;;;5.90;5.50;;;;;;;;;;5080588;28;25489;-45
2022/06/05 12:54:29;;;;;;;6.20;5.90;;;;;;;;;;5084350;28;24525;-45
2022/06/05 12:56:56;;;;;;;5.85;5.45;;;;;;;;;;5079623;28;24469;-46
2022/06/05 12:59:40;;;;;;;5.78;5.47;;;;;;;;;;5083761;28;24456;-45
2022/06/05 13:02:10;;;;;;;6.03;5.70;;;;;;;;;;5086374;28;24491;-45
2022/06/05 13:04:47;;;;;;;6.30;5.90;;;;;;;;;;5080831;28;25054;-46
2022/06/05 13:07:21;;;;;;;6.38;5.97;;;;;;;;;;5083769;28;24796;-47
2022/06/05 13:09:49;;;;;;;6.88;6.47;;;;;;;;;;5081466;28;24426;-46
2022/06/05 13:12:29;;;;;;;6.10;5.80;;;;;;;;;;5082182;28;24438;-46
2022/06/05 13:15:00;;;;;;;6.60;6.20;;;;;;;;;;5081450;28;24462;-47
2022/06/05 13:17:45;;;;;;;6.32;5.93;;;;;;;;;;5074655;28;24842;-46
2022/06/05 13:20:29;;;;;;;6.07;5.68;;;;;;;;;;5080841;28;24784;-47
2022/06/05 13:23:00;;;;;;;6.50;6.10;;;;;;;;;;5080837;28;24418;-46
2022/06/05 13:25:44;;;;;;;5.40;5.10;;;;;;;;;;5081085;28;24418;-46
2022/06/05 13:28:30;;;;;;;6.13;5.72;;;;;;;;;;5079552;28;24556;-47
2022/06/05 13:30:58;;;;;;;5.80;5.40;;;;;;;;;;5073984;28;24446;-46
2022/06/05 13:33:32;;;;;;;5.60;5.30;;;;;;;;;;5085994;28;24429;-46
2022/06/05 13:36:01;;;;;;;5.25;4.95;;;;;;;;;;5073586;28;24475;-46
2022/06/05 13:38:28;;;;;;;5.72;5.32;;;;;;;;;;5084886;28;24582;-46
2022/06/05 13:41:03;;;;;;;6.03;5.70;;;;;;;;;;5086590;28;24422;-46
2022/06/05 13:43:30;;;;;;;5.00;4.70;;;;;;;;;;5085783;28;24445;-47
2022/06/05 13:46:01;;;;;;;5.30;5.00;;;;;;;;;;5089158;28;24438;-47
2022/06/05 13:48:33;;;;;;;5.57;5.07;;;;;;;;;;5067483;28;24987;-47
2022/06/05 13:50:59;;;;;;;4.88;4.68;;;;;;;;;;5083635;28;24438;-47
2022/06/05 13:53:25;;;;;;;5.30;5.00;;;;;;;;;;5097580;28;25119;-46
2022/06/05 13:55:50;;;;;;;5.00;4.70;;;;;;;;;;5071220;28;24421;-46
2022/06/05 13:58:25;;;;;;;5.00;4.70;;;;;;;;;;5080896;28;24429;-48
2022/06/05 14:01:09;;;;;;;6.10;5.60;;;;;;;;;;5102316;28;24429;-45
2022/06/05 14:03:39;;;;;;;5.60;5.30;;;;;;;;;;5099400;28;24532;-45
2022/06/05 14:06:07;;;;;;;6.00;5.60;;;;;;;;;;5084311;28;24414;-46
2022/06/05 14:08:52;;;;;;;5.00;4.60;;;;;;;;;;5081197;28;24434;-47
2022/06/05 14:11:20;;;;;;;4.80;4.50;;;;;;;;;;5085290;28;25002;-46
2022/06/05 14:13:52;;;;;;;4.63;4.33;;;;;;;;;;5088682;28;24440;-47
2022/06/05 14:16:17;;;;;;;4.78;4.55;;;;;;;;;;5083527;28;24523;-46
2022/06/05 14:18:48;;;;;;;5.13;4.73;;;;;;;;;;5102007;28;24884;-46
2022/06/05 14:21:14;;;;;;;4.63;4.43;;;;;;;;;;5082634;28;24951;-47
2022/06/05 14:23:42;;;;;;;4.93;4.63;;;;;;;;;;5084218;28;24475;-47
2022/06/05 14:26:09;;;;;;;4.90;4.60;;;;;;;;;;5085164;28;24426;-46
2022/06/05 14:28:36;;;;;;;4.85;4.55;;;;;;;;;;5066367;28;24450;-46
2022/06/05 14:31:07;;;;;;;4.90;4.50;;;;;;;;;;5084250;28;24458;-47
2022/06/05 14:33:33;;;;;;;5.00;4.70;;;;;;;;;;5086232;28;24465;-47
2022/06/05 14:35:59;;;;;;;4.40;4.20;;;;;;;;;;5102690;28;24454;-46
2022/06/05 14:38:31;;;;;;;4.72;4.53;;;;;;;;;;5106324;28;24393;-47
2022/06/05 14:41:02;;;;;;;4.40;4.10;;;;;;;;;;5105165;28;24490;-46
2022/06/05 14:43:30;;;;;;;4.70;4.40;;;;;;;;;;5102321;28;24500;-46
2022/06/05 14:46:06;;;;;;;4.50;4.20;;;;;;;;;;5099666;28;24500;-46
2022/06/05 14:48:39;;;;;;;4.63;4.40;;;;;;;;;;5091736;28;24422;-46
2022/06/05 14:51:10;;;;;;;5.00;4.60;;;;;;;;;;5066780;28;25367;-46
2022/06/05 14:53:54;;;;;;;4.40;4.20;;;;;;;;;;5073926;28;24465;-47
2022/06/05 14:59:33;;;;;;;5.00;4.70;;;;;;;;;;5105396;28;24401;-47
2022/06/05 15:02:11;;;;;;;4.80;4.50;;;;;;;;;;5092333;28;24504;-46